createdAt,value
2024-02-02T00:00:41.955Z,102817.59
2024-02-02T00:03:09.604Z,102811.56
2024-02-02T00:05:36.934Z,102821.31
2024-02-02T00:08:04.960Z,102813.59
2024-02-02T00:10:32.366Z,102801.53
2024-02-02T00:12:59.920Z,102799.00
2024-02-02T00:15:27.473Z,102796.47
2024-02-02T00:17:55.018Z,102799.19
2024-02-02T00:20:22.450Z,102800.19
2024-02-02T00:22:49.870Z,102795.97
2024-02-02T00:25:17.459Z,102809.09
2024-02-02T00:27:44.828Z,102802.16
2024-02-02T00:30:12.581Z,102799.66
2024-02-02T00:32:45.759Z,102806.78
2024-02-02T00:35:14.532Z,102809.47
2024-02-02T00:37:41.942Z,102810.41
2024-02-02T00:40:10.519Z,102815.78
2024-02-02T00:42:38.439Z,102810.56
2024-02-02T00:45:06.404Z,102808.94
2024-02-02T00:47:33.822Z,102799.44
2024-02-02T00:50:01.650Z,102801.22
2024-02-02T00:52:29.580Z,102795.09
2024-02-02T00:54:56.860Z,102789.00
2024-02-02T00:57:24.640Z,102790.78
2024-02-02T00:59:52.152Z,102771.63
2024-02-02T01:02:19.880Z,102774.31
2024-02-02T01:04:47.431Z,102773.50
2024-02-02T01:07:17.210Z,102774.50
2024-02-02T01:09:45.997Z,102763.16
2024-02-02T01:12:13.515Z,102764.16
2024-02-02T01:14:41.284Z,102765.03
2024-02-02T01:17:08.594Z,102766.03
2024-02-02T01:19:39.033Z,102758.31
2024-02-02T01:22:07.166Z,102762.72
2024-02-02T01:24:34.740Z,102749.78
2024-02-02T01:27:02.118Z,102746.34
2024-02-02T01:29:30.595Z,102742.94
2024-02-02T01:31:58.013Z,102745.63
2024-02-02T01:34:25.669Z,102744.81
2024-02-02T01:36:53.387Z,102750.13
2024-02-02T01:39:20.940Z,102739.69
2024-02-02T01:41:48.393Z,102740.69
2024-02-02T01:44:15.899Z,102739.88
2024-02-02T01:46:47.924Z,102743.47
2024-02-02T01:49:15.541Z,102741.84
2024-02-02T01:51:43.100Z,102731.41
2024-02-02T01:54:11.007Z,102733.19
2024-02-02T01:56:38.884Z,102723.69
2024-02-02T01:59:08.958Z,102724.56
2024-02-02T02:01:36.448Z,102710.69
2024-02-02T02:04:05.151Z,102702.84
2024-02-02T02:06:32.740Z,102700.34
2024-02-02T02:09:00.415Z,102693.41
2024-02-02T02:11:27.972Z,102690.88
2024-02-02T02:13:56.094Z,102690.19
2024-02-02T02:16:23.500Z,102692.78
2024-02-02T02:18:56.142Z,102702.41
2024-02-02T02:21:30.592Z,102686.75
2024-02-02T02:23:58.195Z,102688.47
2024-02-02T02:26:27.316Z,102685.03
2024-02-02T02:28:54.735Z,102679.00
2024-02-02T02:31:22.242Z,102680.78
2024-02-02T02:33:49.814Z,102672.94
2024-02-02T02:36:17.730Z,102683.50
2024-02-02T02:38:45.643Z,102674.84
2024-02-02T02:41:13.100Z,102673.03
2024-02-02T02:43:40.632Z,102681.84
2024-02-02T02:46:08.530Z,102678.44
2024-02-02T02:48:38.222Z,102677.63
2024-02-02T02:51:05.954Z,102682.94
2024-02-02T02:53:33.388Z,102678.63
2024-02-02T02:56:00.712Z,102683.03
2024-02-02T02:58:28.070Z,102677.91
2024-02-02T03:00:55.710Z,102674.47
2024-02-02T03:03:23.509Z,102685.00
2024-02-02T03:05:50.950Z,102685.00
2024-02-02T03:08:18.348Z,102682.38
2024-02-02T03:10:45.679Z,102669.41
2024-02-02T03:13:13.157Z,102678.16
2024-02-02T03:15:41.609Z,102666.00
2024-02-02T03:18:11.224Z,102658.25
2024-02-02T03:20:38.602Z,102652.22
2024-02-02T03:23:06.185Z,102626.09
2024-02-02T03:25:33.547Z,102613.94
2024-02-02T03:28:00.912Z,102602.69
2024-02-02T03:30:28.653Z,102605.31
2024-02-02T03:32:56.496Z,102611.41
2024-02-02T03:35:25.449Z,102606.28
2024-02-02T03:37:52.810Z,102599.34
2024-02-02T03:40:20.119Z,102609.78
2024-02-02T03:42:47.613Z,102608.16
2024-02-02T03:45:15.632Z,102602.13
2024-02-02T03:47:43.023Z,102584.63
2024-02-02T03:50:11.009Z,102578.72
2024-02-02T03:52:38.539Z,102569.06
2024-02-02T03:55:06.345Z,102583.09
2024-02-02T03:57:33.809Z,102585.81
2024-02-02T04:00:01.237Z,102584.06
2024-02-02T04:02:28.643Z,102575.44
2024-02-02T04:04:56.108Z,102556.41
2024-02-02T04:07:23.576Z,102545.97
2024-02-02T04:09:50.955Z,102532.09
2024-02-02T04:12:19.057Z,102535.50
2024-02-02T04:14:46.405Z,102526.88
2024-02-02T04:17:13.839Z,102512.09
2024-02-02T04:19:41.604Z,102508.66
2024-02-02T04:22:09.139Z,102500.00
2024-02-02T04:24:36.665Z,102504.44
2024-02-02T04:27:04.408Z,102512.25
2024-02-02T04:29:31.830Z,102516.66
2024-02-02T04:31:59.265Z,102521.00
2024-02-02T04:34:26.660Z,102518.38
2024-02-02T04:36:54.319Z,102509.72
2024-02-02T04:39:21.719Z,102519.44
2024-02-02T04:41:49.109Z,102518.53
2024-02-02T04:44:16.560Z,102524.66
2024-02-02T04:46:43.977Z,102524.75
2024-02-02T04:49:11.716Z,102517.72
2024-02-02T04:51:39.174Z,102511.69
2024-02-02T04:54:06.682Z,102499.50
2024-02-02T04:56:34.117Z,102491.78
2024-02-02T04:59:01.486Z,102480.41
2024-02-02T05:01:28.856Z,102478.69
2024-02-02T05:03:56.338Z,102492.56
2024-02-02T05:06:23.849Z,102501.38
2024-02-02T05:08:51.410Z,102487.50
2024-02-02T05:11:18.826Z,102483.09
2024-02-02T05:13:46.126Z,102484.06
2024-02-02T05:16:15.691Z,102481.44
2024-02-02T05:18:43.889Z,102500.66
2024-02-02T05:21:11.385Z,102487.66
2024-02-02T05:23:43.775Z,102478.13
2024-02-02T05:26:17.151Z,102471.97
2024-02-02T05:28:44.810Z,102455.41
2024-02-02T05:31:12.165Z,102467.59
2024-02-02T05:33:39.675Z,102457.94
2024-02-02T05:36:07.540Z,102453.63
2024-02-02T05:38:34.933Z,102457.94
2024-02-02T05:41:02.474Z,102453.63
2024-02-02T05:43:30.028Z,102455.31
2024-02-02T05:45:57.427Z,102457.06
2024-02-02T05:48:24.948Z,102456.16
2024-02-02T05:50:52.415Z,102467.41
2024-02-02T05:53:19.851Z,102456.97
2024-02-02T05:55:47.729Z,102458.78
2024-02-02T05:58:15.516Z,102462.38
2024-02-02T06:00:42.980Z,102455.31
2024-02-02T06:03:10.605Z,102450.19
2024-02-02T06:05:38.278Z,102458.91
2024-02-02T06:08:07.920Z,102462.50
2024-02-02T06:10:35.454Z,102462.59
2024-02-02T06:13:03.025Z,102455.72
2024-02-02T06:15:30.956Z,102468.06
2024-02-02T06:17:58.886Z,102478.66
2024-02-02T06:20:26.603Z,102463.94
2024-02-02T06:22:53.966Z,102478.91
2024-02-02T06:25:21.315Z,102465.00
2024-02-02T06:27:48.670Z,102465.09
2024-02-02T06:30:16.101Z,102472.13
2024-02-02T06:32:47.321Z,102453.00
2024-02-02T06:35:15.123Z,102451.34
2024-02-02T06:37:42.724Z,102443.50
2024-02-02T06:40:11.566Z,102436.59
2024-02-02T06:42:39.326Z,102440.97
2024-02-02T06:45:07.374Z,102431.41
2024-02-02T06:47:35.000Z,102428.00
2024-02-02T06:50:03.411Z,102444.47
2024-02-02T06:52:31.085Z,102442.78
2024-02-02T06:54:58.857Z,102441.94
2024-02-02T06:57:28.098Z,102433.22
2024-02-02T06:59:56.674Z,102437.69
2024-02-02T07:02:34.061Z,102443.84
2024-02-02T07:05:02.783Z,102435.16
2024-02-02T07:07:30.733Z,102436.06
2024-02-02T07:09:58.229Z,102438.66
2024-02-02T07:12:40.933Z,102431.75
2024-02-02T07:15:16.130Z,102435.25
2024-02-02T07:17:46.023Z,102441.28
2024-02-02T07:20:34.581Z,102432.63
2024-02-02T07:23:03.056Z,102427.25
2024-02-02T07:25:38.248Z,102428.16
2024-02-02T07:28:07.763Z,102435.00
2024-02-02T07:30:45.046Z,102443.50
2024-02-02T07:33:24.649Z,102436.50
2024-02-02T07:35:53.932Z,102433.63
2024-02-02T07:38:39.950Z,102423.94
2024-02-02T07:41:13.371Z,102418.63
2024-02-02T07:43:40.952Z,102404.44
2024-02-02T07:46:12.285Z,102404.38
2024-02-02T07:48:42.295Z,102394.66
2024-02-02T07:51:10.402Z,102399.78
2024-02-02T07:53:37.891Z,102398.81
2024-02-02T07:56:05.927Z,102402.34
2024-02-02T07:58:33.303Z,102393.69
2024-02-02T08:01:00.917Z,102393.75
2024-02-02T08:03:28.385Z,102400.78
2024-02-02T08:05:56.365Z,102396.38
2024-02-02T08:08:24.107Z,102395.56
2024-02-02T08:10:51.684Z,102398.22
2024-02-02T08:13:20.221Z,102393.97
2024-02-02T08:15:47.755Z,102399.28
2024-02-02T08:18:15.256Z,102395.94
2024-02-02T08:20:42.831Z,102390.84
2024-02-02T08:23:10.238Z,102395.34
2024-02-02T08:25:37.749Z,102385.88
2024-02-02T08:28:05.550Z,102375.56
2024-02-02T08:30:33.004Z,102370.31
2024-02-02T08:33:00.700Z,102376.59
2024-02-02T08:35:29.670Z,102353.97
2024-02-02T08:38:02.483Z,102356.66
2024-02-02T08:40:42.513Z,102348.91
2024-02-02T08:43:18.218Z,102345.53
2024-02-02T08:46:00.753Z,102344.78
2024-02-02T08:48:47.786Z,102329.19
2024-02-02T08:51:25.570Z,102337.16
2024-02-02T08:54:07.718Z,102327.75
2024-02-02T08:56:35.277Z,102330.44
2024-02-02T08:59:25.877Z,102332.44
2024-02-02T09:01:53.214Z,102322.97
2024-02-02T09:04:36.136Z,102325.72
2024-02-02T09:07:05.203Z,102330.19
2024-02-02T09:09:32.857Z,102328.63
2024-02-02T09:12:00.472Z,102322.63
2024-02-02T09:14:28.869Z,102327.13
2024-02-02T09:16:56.381Z,102334.28
2024-02-02T09:19:26.947Z,102341.44
2024-02-02T09:22:16.931Z,102339.88
2024-02-02T09:24:47.628Z,102340.06
2024-02-02T09:27:16.684Z,102344.56
2024-02-02T09:29:47.986Z,102340.38
2024-02-02T09:32:19.213Z,102350.19
2024-02-02T09:34:47.730Z,102341.72
2024-02-02T09:37:23.615Z,102334.91
2024-02-02T09:39:55.874Z,102332.50
2024-02-02T09:42:23.174Z,102339.66
2024-02-02T09:44:58.257Z,102339.88
2024-02-02T09:47:45.570Z,102343.44
2024-02-02T09:50:16.221Z,102351.44
2024-02-02T09:52:43.705Z,102347.19
2024-02-02T09:55:33.823Z,102359.50
2024-02-02T09:58:11.357Z,102357.94
2024-02-02T10:01:10.147Z,102353.72
2024-02-02T10:03:55.898Z,102356.59
2024-02-02T10:06:46.406Z,102351.63
2024-02-02T10:09:56.048Z,102355.34
2024-02-02T10:12:44.547Z,102355.53
2024-02-02T10:15:33.387Z,102357.50
2024-02-02T10:18:16.319Z,102351.41
2024-02-02T10:20:53.938Z,102342.03
2024-02-02T10:23:36.616Z,102347.38
2024-02-02T10:26:15.976Z,102348.38
2024-02-02T10:29:05.978Z,102338.84
2024-02-02T10:31:36.455Z,102343.25
2024-02-02T10:34:09.930Z,102330.28
2024-02-02T10:36:46.608Z,102322.53
2024-02-02T10:39:21.777Z,102327.84
2024-02-02T10:42:17.208Z,102318.38
2024-02-02T10:45:09.092Z,102315.91
2024-02-02T10:48:12.524Z,102321.41
2024-02-02T10:51:10.536Z,102317.19
2024-02-02T10:54:06.916Z,102309.47
2024-02-02T10:56:58.448Z,102313.28
2024-02-02T10:59:47.090Z,102302.94
2024-02-02T11:03:02.235Z,102307.56
2024-02-02T11:05:48.268Z,102295.47
2024-02-02T11:08:19.704Z,102302.59
2024-02-02T11:11:00.195Z,102308.13
2024-02-02T11:14:02.685Z,102300.41
2024-02-02T11:16:58.532Z,102304.94
2024-02-02T11:19:25.867Z,102294.53
2024-02-02T11:22:04.628Z,102295.41
2024-02-02T11:24:51.640Z,102295.47
2024-02-02T11:27:31.234Z,102284.09
2024-02-02T11:30:12.002Z,102264.84
2024-02-02T11:33:04.655Z,102262.22
2024-02-02T11:35:48.429Z,102265.72
2024-02-02T11:38:36.583Z,102242.22
2024-02-02T11:41:04.902Z,102254.66
2024-02-02T11:43:33.114Z,102248.75
2024-02-02T11:46:02.167Z,102242.88
2024-02-02T11:48:40.433Z,102242.31
2024-02-02T11:51:11.851Z,102239.16
2024-02-02T11:54:15.578Z,102250.81
2024-02-02T11:56:51.382Z,102229.97
2024-02-02T11:59:30.833Z,102231.09
2024-02-02T12:02:18.537Z,102214.78
2024-02-02T12:05:04.660Z,102232.50
2024-02-02T12:07:38.574Z,102227.44
2024-02-02T12:10:09.505Z,102231.13
2024-02-02T12:12:41.942Z,102239.16
2024-02-02T12:15:11.184Z,102232.16
2024-02-02T12:17:40.020Z,102230.31
2024-02-02T12:20:11.263Z,102242.53
2024-02-02T12:22:38.884Z,102244.13
2024-02-02T12:25:10.950Z,102232.69
2024-02-02T12:27:38.763Z,102218.63
2024-02-02T12:30:11.158Z,102223.81
2024-02-02T12:32:42.838Z,102218.63
2024-02-02T12:35:10.760Z,102212.56
2024-02-02T12:37:50.352Z,102208.19
2024-02-02T12:40:21.701Z,102213.44
2024-02-02T12:42:49.749Z,102212.50
2024-02-02T12:45:19.186Z,102209.78
2024-02-02T12:47:48.324Z,102217.56
2024-02-02T12:50:16.892Z,102226.22
2024-02-02T12:52:52.465Z,102214.72
2024-02-02T12:55:20.160Z,102209.34
2024-02-02T12:57:47.898Z,102217.16
2024-02-02T13:00:15.995Z,102220.53
2024-02-02T13:02:47.752Z,102220.53
2024-02-02T13:05:18.711Z,102209.09
2024-02-02T13:07:53.046Z,102211.59
2024-02-02T13:10:45.426Z,102214.22
2024-02-02T13:13:26.856Z,102208.03
2024-02-02T13:15:55.022Z,102208.03
2024-02-02T13:18:25.267Z,102202.75
2024-02-02T13:20:57.553Z,102193.06
2024-02-02T13:23:30.385Z,102206.13
2024-02-02T13:26:08.027Z,102200.88
2024-02-02T13:28:42.497Z,102200.81
2024-02-02T13:31:13.866Z,102206.03
2024-02-02T13:33:47.366Z,102203.34
2024-02-02T13:36:18.539Z,102198.94
2024-02-02T13:38:48.357Z,102205.03
2024-02-02T13:41:21.427Z,102199.66
2024-02-02T13:44:07.444Z,102185.66
2024-02-02T13:46:46.057Z,102193.41
2024-02-02T13:49:34.654Z,102202.97
2024-02-02T13:52:07.338Z,102197.72
2024-02-02T13:54:35.065Z,102198.44
2024-02-02T13:57:03.142Z,102194.94
2024-02-02T13:59:30.796Z,102201.84
2024-02-02T14:02:08.419Z,102207.94
2024-02-02T14:04:36.088Z,102190.38
2024-02-02T14:07:17.037Z,102205.19
2024-02-02T14:09:45.024Z,102205.16
2024-02-02T14:12:13.329Z,102182.28
2024-02-02T14:14:40.824Z,102195.34
2024-02-02T14:17:08.324Z,102196.22
2024-02-02T14:19:35.974Z,102198.78
2024-02-02T14:22:06.196Z,102182.97
2024-02-02T14:24:34.365Z,102188.16
2024-02-02T14:27:05.903Z,102189.00
2024-02-02T14:29:44.623Z,102183.69
2024-02-02T14:32:12.626Z,102192.38
2024-02-02T14:34:40.373Z,102194.13
2024-02-02T14:37:09.930Z,102188.06
2024-02-02T14:39:37.725Z,102197.63
2024-02-02T14:42:06.831Z,102196.75
2024-02-02T14:44:35.278Z,102190.69
2024-02-02T14:47:02.834Z,102188.94
2024-02-02T14:49:30.868Z,102182.88
2024-02-02T14:51:58.467Z,102175.88
2024-02-02T14:54:26.913Z,102183.81
2024-02-02T14:56:54.492Z,102170.72
2024-02-02T14:59:29.496Z,102170.72
2024-02-02T15:01:57.642Z,102177.78
2024-02-02T15:04:25.464Z,102190.06
2024-02-02T15:06:53.173Z,102186.59
2024-02-02T15:09:21.218Z,102186.59
2024-02-02T15:11:48.623Z,102184.91
2024-02-02T15:14:16.414Z,102175.28
2024-02-02T15:16:44.167Z,102168.28
2024-02-02T15:19:11.866Z,102159.56
2024-02-02T15:21:39.396Z,102165.66
2024-02-02T15:24:08.046Z,102163.09
2024-02-02T15:26:37.915Z,102186.78
2024-02-02T15:29:05.810Z,102179.78
2024-02-02T15:31:34.028Z,102194.69
2024-02-02T15:34:06.318Z,102199.94
2024-02-02T15:36:36.924Z,102200.88
2024-02-02T15:39:18.972Z,102207.94
2024-02-02T15:41:54.458Z,102193.94
2024-02-02T15:44:22.387Z,102201.84
2024-02-02T15:46:49.912Z,102212.34
2024-02-02T15:49:17.544Z,102208.88
2024-02-02T15:51:45.257Z,102204.50
2024-02-02T15:54:12.926Z,102202.84
2024-02-02T15:56:40.817Z,102189.72
2024-02-02T15:59:08.748Z,102201.13
2024-02-02T16:01:36.597Z,102195.94
2024-02-02T16:04:04.790Z,102203.81
2024-02-02T16:06:32.543Z,102187.16
2024-02-02T16:09:00.299Z,102187.22
2024-02-02T16:11:27.853Z,102189.78
2024-02-02T16:13:55.377Z,102195.97
2024-02-02T16:16:22.695Z,102195.16
2024-02-02T16:18:50.206Z,102197.84
2024-02-02T16:21:17.928Z,102200.47
2024-02-02T16:23:45.350Z,102202.22
2024-02-02T16:26:13.735Z,102189.09
2024-02-02T16:28:41.105Z,102198.78
2024-02-02T16:31:08.657Z,102196.22
2024-02-02T16:33:36.576Z,102207.59
2024-02-02T16:36:04.508Z,102211.97
2024-02-02T16:38:35.990Z,102213.72
2024-02-02T16:41:04.110Z,102201.47
2024-02-02T16:43:31.872Z,102190.09
2024-02-02T16:45:59.223Z,102188.38
2024-02-02T16:48:26.724Z,102174.41
2024-02-02T16:50:56.222Z,102178.78
2024-02-02T16:53:23.868Z,102173.53
2024-02-02T16:55:51.778Z,102188.44
2024-02-02T16:58:19.587Z,102175.31
2024-02-02T17:00:47.057Z,102180.56
2024-02-02T17:03:14.835Z,102192.00
2024-02-02T17:05:42.369Z,102195.53
2024-02-02T17:08:09.869Z,102206.94
2024-02-02T17:10:37.645Z,102206.06
2024-02-02T17:13:05.203Z,102210.44
2024-02-02T17:15:34.898Z,102216.56
2024-02-02T17:18:02.475Z,102215.69
2024-02-02T17:20:29.947Z,102211.38
2024-02-02T17:22:57.796Z,102192.19
2024-02-02T17:25:25.165Z,102190.44
2024-02-02T17:27:52.785Z,102192.25
2024-02-02T17:30:23.004Z,102188.81
2024-02-02T17:32:50.687Z,102194.13
2024-02-02T17:35:18.702Z,102198.53
2024-02-02T17:37:46.349Z,102202.88
2024-02-02T17:40:15.237Z,102204.69
2024-02-02T17:42:43.521Z,102223.06
2024-02-02T17:45:11.400Z,102235.28
2024-02-02T17:47:38.987Z,102236.13
2024-02-02T17:50:10.045Z,102237.00
2024-02-02T17:52:37.521Z,102240.53
2024-02-02T17:55:05.459Z,102240.53
2024-02-02T17:57:33.159Z,102238.75
2024-02-02T18:00:00.848Z,102239.66
2024-02-02T18:02:28.365Z,102230.88
2024-02-02T18:04:55.707Z,102225.63
2024-02-02T18:07:29.991Z,102215.13
2024-02-02T18:10:00.747Z,102216.00
2024-02-02T18:12:28.389Z,102204.69
2024-02-02T18:14:55.952Z,102190.66
2024-02-02T18:17:23.336Z,102190.66
2024-02-02T18:19:50.892Z,102181.94
2024-02-02T18:22:18.695Z,102175.00
2024-02-02T18:24:46.467Z,102173.28
2024-02-02T18:27:13.867Z,102179.41
2024-02-02T18:29:41.337Z,102196.09
2024-02-02T18:32:09.111Z,102206.59
2024-02-02T18:34:39.712Z,102217.16
2024-02-02T18:37:07.104Z,102209.22
2024-02-02T18:39:34.463Z,102195.16
2024-02-02T18:42:06.551Z,102203.03
2024-02-02T18:44:37.517Z,102196.03
2024-02-02T18:47:05.295Z,102194.28
2024-02-02T18:49:32.964Z,102194.28
2024-02-02T18:52:00.320Z,102188.19
2024-02-02T18:54:28.350Z,102194.34
2024-02-02T18:56:56.199Z,102183.91
2024-02-02T18:59:23.578Z,102198.78
2024-02-02T19:01:51.213Z,102191.72
2024-02-02T19:04:18.651Z,102202.22
2024-02-02T19:06:46.171Z,102205.66
2024-02-02T19:09:14.221Z,102209.25
2024-02-02T19:11:41.675Z,102203.91
2024-02-02T19:14:34.617Z,102197.78
2024-02-02T19:17:01.987Z,102195.16
2024-02-02T19:19:29.537Z,102196.97
2024-02-02T19:21:57.502Z,102182.03
2024-02-02T19:24:24.900Z,102173.22
2024-02-02T19:26:54.644Z,102180.88
2024-02-02T19:29:22.399Z,102180.75
2024-02-02T19:31:49.734Z,102185.03
2024-02-02T19:34:17.511Z,102177.94
2024-02-02T19:36:45.091Z,102184.84
2024-02-02T19:39:13.399Z,102196.22
2024-02-02T19:41:40.879Z,102186.53
2024-02-02T19:44:08.366Z,102198.78
2024-02-02T19:46:35.759Z,102188.28
2024-02-02T19:49:03.796Z,102191.78
2024-02-02T19:51:32.061Z,102195.28
2024-02-02T19:53:59.661Z,102193.53
2024-02-02T19:56:27.192Z,102190.06
2024-02-02T19:58:55.425Z,102191.91
2024-02-02T20:01:25.856Z,102188.44
2024-02-02T20:03:53.976Z,102208.59
2024-02-02T20:06:21.813Z,102194.63
2024-02-02T20:08:50.148Z,102188.56
2024-02-02T20:11:19.365Z,102185.13
2024-02-02T20:13:47.785Z,102183.44
2024-02-02T20:16:17.750Z,102174.75
2024-02-02T20:18:45.554Z,102178.31
2024-02-02T20:21:17.551Z,102174.91
2024-02-02T20:23:46.674Z,102174.06
2024-02-02T20:26:21.274Z,102168.03
2024-02-02T20:28:50.889Z,102176.06
2024-02-02T20:31:18.791Z,102177.91
2024-02-02T20:33:46.583Z,102184.97
2024-02-02T20:36:14.645Z,102178.06
2024-02-02T20:38:43.784Z,102167.59
2024-02-02T20:41:14.991Z,102167.66
2024-02-02T20:43:47.300Z,102170.34
2024-02-02T20:46:15.061Z,102162.53
2024-02-02T20:48:42.573Z,102170.50
2024-02-02T20:51:14.117Z,102164.41
2024-02-02T20:53:43.451Z,102160.94
2024-02-02T20:56:10.971Z,102153.97
2024-02-02T20:58:38.316Z,102154.84
2024-02-02T21:01:07.107Z,102159.25
2024-02-02T21:03:35.524Z,102166.28
2024-02-02T21:06:03.660Z,102157.59
2024-02-02T21:08:31.190Z,102154.16
2024-02-02T21:10:58.754Z,102159.47
2024-02-02T21:13:26.903Z,102152.47
2024-02-02T21:15:54.679Z,102157.72
2024-02-02T21:18:24.251Z,102155.16
2024-02-02T21:20:52.497Z,102157.78
2024-02-02T21:23:19.983Z,102155.97
2024-02-02T21:25:48.345Z,102162.16
2024-02-02T21:28:18.781Z,102156.91
2024-02-02T21:30:47.856Z,102149.84
2024-02-02T21:33:19.935Z,102164.72
2024-02-02T21:35:48.751Z,102151.59
2024-02-02T21:38:16.364Z,102153.28
2024-02-02T21:40:43.769Z,102160.28
2024-02-02T21:43:11.183Z,102152.34
2024-02-02T21:45:39.988Z,102155.00
2024-02-02T21:48:09.110Z,102156.72
2024-02-02T21:50:36.671Z,102164.59
2024-02-02T21:53:04.276Z,102147.09
2024-02-02T21:55:31.845Z,102146.28
2024-02-02T21:57:59.428Z,102158.53
2024-02-02T22:00:26.877Z,102150.66
2024-02-02T22:02:54.331Z,102148.03
2024-02-02T22:05:23.683Z,102148.03
2024-02-02T22:07:51.293Z,102147.16
2024-02-02T22:10:18.890Z,102144.53
2024-02-02T22:12:46.414Z,102146.34
2024-02-02T22:15:13.991Z,102156.91
2024-02-02T22:17:41.420Z,102148.16
2024-02-02T22:20:09.681Z,102140.34
2024-02-02T22:22:37.202Z,102149.09
2024-02-02T22:25:04.860Z,102150.94
2024-02-02T22:27:35.183Z,102149.19
2024-02-02T22:30:07.521Z,102136.06
2024-02-02T22:32:35.173Z,102142.25
2024-02-02T22:35:02.709Z,102145.81
2024-02-02T22:37:30.380Z,102154.63
2024-02-02T22:39:58.088Z,102149.38
2024-02-02T22:42:25.655Z,102135.41
2024-02-02T22:44:55.301Z,102147.69
2024-02-02T22:47:22.680Z,102143.34
2024-02-02T22:49:50.226Z,102144.25
2024-02-02T22:52:19.163Z,102146.88
2024-02-02T22:54:46.818Z,102144.25
2024-02-02T22:57:14.421Z,102144.25
2024-02-02T22:59:45.350Z,102151.25
2024-02-02T23:02:18.093Z,102145.19
2024-02-02T23:04:45.549Z,102145.19
2024-02-02T23:07:12.971Z,102151.31
2024-02-02T23:09:40.335Z,102154.88
2024-02-02T23:12:08.157Z,102144.34
2024-02-02T23:14:35.592Z,102159.31
2024-02-02T23:17:02.993Z,102138.28
2024-02-02T23:19:30.699Z,102140.97
2024-02-02T23:21:58.247Z,102132.16
2024-02-02T23:24:25.867Z,102136.59
2024-02-02T23:26:54.631Z,102136.66
2024-02-02T23:29:22.108Z,102141.06
2024-02-02T23:31:49.672Z,102133.28
2024-02-02T23:34:17.446Z,102136.91
2024-02-02T23:36:44.975Z,102128.25
2024-02-02T23:39:13.488Z,102121.38
2024-02-02T23:41:40.848Z,102117.03
2024-02-02T23:44:08.222Z,102134.69
2024-02-02T23:46:35.572Z,102133.94
2024-02-02T23:49:03.485Z,102111.19
2024-02-02T23:51:31.102Z,102118.22
2024-02-02T23:53:58.706Z,102124.28
2024-02-02T23:56:26.032Z,102112.06
2024-02-02T23:58:53.641Z,102115.59
